PLB weather

CLOSED Clinton County Airport
Plattsburgh, New York, United States

Public forecast

Using degrees Fahrenheit for public forecast. Weather courtesy of forecast.io.

METAR (pilot weather report)

Closest report is Plattsburgh International Airport, 3.3 nm (6.0 km) SE. Retrieved 2019/05/19 22:53 UTC (1 hour ago):

KPBG 192253Z AUTO 02006KT 10SM CLR 18/12 A2981 RMK AO2 SLP096 T01830122

TAF (pilot weather forecast)

Closest forecast is Plattsburgh International Airport, 3.3 nm (6.0 km) SE. Retrieved 2019/05/19 18:42 UTC (5 hours ago):

TAF KPBG 191734Z 1918/2018 03007KT P6SM BKN050 FM192000 06007KT P6SM -SHRA BKN050 TEMPO 1921/1924 5SM -TSRA OVC025CB FM200300 17008KT 6SM -SHRA BR BKN045 FM200600 17009KT P6SM VCSH BKN050 FM201600 20009KT 6SM -SHRA BR BKN040